createdAt,value
2023-03-21T00:00:57.588Z,5.23
2023-03-21T00:03:26.674Z,5.20
2023-03-21T00:05:55.116Z,4.73
2023-03-21T00:08:24.293Z,5.00
2023-03-21T00:10:57.474Z,5.50
2023-03-21T00:13:26.553Z,5.20
2023-03-21T00:16:09.754Z,5.30
2023-03-21T00:18:46.468Z,4.87
2023-03-21T00:21:39.649Z,5.27
2023-03-21T00:24:05.194Z,5.47
2023-03-21T00:26:33.869Z,5.53
2023-03-21T00:29:03.035Z,5.03
2023-03-21T00:31:32.750Z,4.80
2023-03-21T00:34:01.459Z,5.20
2023-03-21T00:36:32.933Z,5.37
2023-03-21T00:39:02.410Z,5.27
2023-03-21T00:41:41.840Z,5.03
2023-03-21T00:44:11.578Z,4.97
2023-03-21T00:46:49.359Z,5.33
2023-03-21T00:49:22.989Z,5.20
2023-03-21T00:51:53.239Z,5.50
2023-03-21T00:54:21.792Z,5.60
2023-03-21T00:56:50.266Z,5.50
2023-03-21T00:59:18.639Z,5.03
2023-03-21T01:01:48.464Z,4.97
2023-03-21T01:04:17.197Z,5.20
2023-03-21T01:06:45.885Z,5.40
2023-03-21T01:09:16.533Z,5.10
2023-03-21T01:11:45.030Z,5.00
2023-03-21T01:14:23.278Z,5.60
2023-03-21T01:16:54.009Z,5.37
2023-03-21T01:19:29.147Z,5.10
2023-03-21T01:22:01.562Z,5.47
2023-03-21T01:24:31.274Z,4.83
2023-03-21T01:27:00.655Z,5.20
2023-03-21T01:29:29.181Z,5.43
2023-03-21T01:32:00.595Z,5.43
2023-03-21T01:34:30.051Z,4.90
2023-03-21T01:36:58.490Z,5.13
2023-03-21T01:39:26.928Z,5.00
2023-03-21T01:41:55.523Z,5.17
2023-03-21T01:44:26.879Z,5.00
2023-03-21T01:47:12.793Z,5.53
2023-03-21T01:49:49.688Z,5.23
2023-03-21T01:52:39.693Z,5.23
2023-03-21T01:55:28.462Z,4.57
2023-03-21T01:58:23.021Z,5.30
2023-03-21T02:01:08.687Z,5.27
2023-03-21T02:03:51.292Z,5.27
2023-03-21T02:06:45.231Z,5.50
2023-03-21T02:09:25.612Z,5.70
2023-03-21T02:11:56.094Z,5.33
2023-03-21T02:14:29.500Z,5.70
2023-03-21T02:17:07.119Z,5.70
2023-03-21T02:20:08.792Z,6.00
2023-03-21T02:23:01.658Z,5.57
2023-03-21T02:25:45.056Z,5.70
2023-03-21T02:28:16.785Z,5.70
2023-03-21T02:30:52.723Z,5.20
2023-03-21T02:33:38.909Z,5.97
2023-03-21T02:36:16.462Z,5.50
2023-03-21T02:38:49.737Z,5.00
2023-03-21T02:41:21.263Z,4.97
2023-03-21T02:43:56.173Z,5.13
2023-03-21T02:46:40.157Z,5.53
2023-03-21T02:49:14.523Z,5.30
2023-03-21T02:51:43.603Z,4.80
2023-03-21T02:54:30.310Z,5.30
2023-03-21T02:57:04.526Z,4.77
2023-03-21T02:59:35.777Z,4.73
2023-03-21T03:02:06.959Z,5.13
2023-03-21T03:04:35.430Z,4.40
2023-03-21T03:07:11.413Z,5.50
2023-03-21T03:09:46.435Z,4.63
2023-03-21T03:12:19.175Z,4.87
2023-03-21T03:15:02.973Z,4.47
2023-03-21T03:17:41.212Z,4.80
2023-03-21T03:20:17.563Z,5.40
2023-03-21T03:22:50.995Z,4.73
2023-03-21T03:25:32.595Z,4.50
2023-03-21T03:28:10.805Z,4.97
2023-03-21T03:30:46.574Z,5.40
2023-03-21T03:33:23.655Z,5.10
2023-03-21T03:36:04.660Z,5.27
2023-03-21T03:38:38.156Z,5.43
2023-03-21T03:41:11.576Z,5.60
2023-03-21T03:43:54.042Z,5.13
2023-03-21T03:46:26.025Z,5.20
2023-03-21T03:48:57.134Z,5.97
2023-03-21T03:51:27.352Z,5.97
2023-03-21T03:54:09.803Z,5.10
2023-03-21T03:56:39.730Z,5.27
2023-03-21T03:59:08.406Z,5.43
2023-03-21T04:02:06.052Z,5.63
2023-03-21T04:04:34.631Z,5.60
2023-03-21T04:07:03.669Z,6.20
2023-03-21T04:09:43.772Z,5.60
2023-03-21T04:12:16.134Z,6.10
2023-03-21T04:15:09.489Z,5.60
2023-03-21T04:17:39.664Z,5.40
2023-03-21T04:20:13.976Z,5.83
2023-03-21T04:22:47.246Z,5.80
2023-03-21T04:25:27.415Z,6.07
2023-03-21T04:28:02.530Z,5.50
2023-03-21T04:31:00.306Z,5.50
2023-03-21T04:33:31.840Z,5.67
2023-03-21T04:36:01.395Z,6.10
2023-03-21T04:38:33.812Z,5.70
2023-03-21T04:41:05.246Z,5.53
2023-03-21T04:43:34.988Z,5.70
2023-03-21T04:46:04.260Z,6.10
2023-03-21T04:48:32.709Z,5.57
2023-03-21T04:51:04.596Z,5.87
2023-03-21T04:53:33.113Z,6.50
2023-03-21T04:56:01.823Z,5.90
2023-03-21T04:58:30.456Z,6.27
2023-03-21T05:01:02.540Z,5.23
2023-03-21T05:03:34.972Z,5.83
2023-03-21T05:06:03.569Z,5.53
2023-03-21T05:08:32.173Z,5.77
2023-03-21T05:11:00.594Z,5.50
2023-03-21T05:13:29.690Z,5.33
2023-03-21T05:15:58.192Z,5.73
2023-03-21T05:18:28.172Z,6.07
2023-03-21T05:21:19.417Z,6.13
2023-03-21T05:23:54.450Z,6.23
2023-03-21T05:26:23.718Z,6.37
2023-03-21T05:29:13.372Z,6.40
2023-03-21T05:31:42.521Z,5.70
2023-03-21T05:34:15.759Z,6.20
2023-03-21T05:36:44.901Z,6.30
2023-03-21T05:39:13.622Z,6.00
2023-03-21T05:41:47.955Z,6.53
2023-03-21T05:44:17.144Z,6.87
2023-03-21T05:46:45.625Z,5.73
2023-03-21T05:49:16.454Z,6.30
2023-03-21T05:51:46.532Z,6.10
2023-03-21T05:54:16.776Z,6.40
2023-03-21T05:56:48.039Z,6.80
2023-03-21T05:59:25.954Z,6.30
2023-03-21T06:01:56.555Z,6.20
2023-03-21T06:04:26.439Z,5.60
2023-03-21T06:06:55.357Z,6.47
2023-03-21T06:09:25.028Z,6.47
2023-03-21T06:11:58.740Z,6.00
2023-03-21T06:14:40.334Z,6.80
2023-03-21T06:17:31.081Z,6.60
2023-03-21T06:20:06.924Z,6.60
2023-03-21T06:22:41.480Z,5.70
2023-03-21T06:25:10.511Z,6.57
2023-03-21T06:27:39.403Z,6.30
2023-03-21T06:30:09.372Z,6.10
2023-03-21T06:32:46.836Z,6.33
2023-03-21T06:35:20.179Z,5.63
2023-03-21T06:37:49.439Z,5.93
2023-03-21T06:40:18.984Z,6.20
2023-03-21T06:42:47.373Z,5.87
2023-03-21T06:45:15.744Z,6.40
2023-03-21T06:47:45.356Z,6.30
2023-03-21T06:50:27.489Z,5.97
2023-03-21T06:52:57.605Z,5.67
2023-03-21T06:55:27.085Z,6.00
2023-03-21T06:57:56.593Z,6.20
2023-03-21T07:00:27.942Z,6.60
2023-03-21T07:02:56.486Z,6.23
2023-03-21T07:05:28.234Z,6.80
2023-03-21T07:07:57.895Z,6.40
2023-03-21T07:10:29.345Z,6.57
2023-03-21T07:13:06.765Z,6.63
2023-03-21T07:15:44.210Z,6.23
2023-03-21T07:18:13.922Z,6.10
2023-03-21T07:20:50.993Z,5.77
2023-03-21T07:23:19.987Z,5.67
2023-03-21T07:25:49.391Z,6.00
2023-03-21T07:28:17.970Z,6.83
2023-03-21T07:30:47.049Z,6.33
2023-03-21T07:33:16.121Z,6.30
2023-03-21T07:35:46.313Z,6.30
2023-03-21T07:38:16.867Z,6.47
2023-03-21T07:40:45.406Z,5.30
2023-03-21T07:43:14.158Z,5.83
2023-03-21T07:45:45.133Z,6.00
2023-03-21T07:48:14.133Z,5.80
2023-03-21T07:50:42.638Z,4.90
2023-03-21T07:53:12.555Z,5.87
2023-03-21T07:55:40.995Z,5.60
2023-03-21T07:58:09.452Z,5.43
2023-03-21T08:00:37.844Z,5.70
2023-03-21T08:03:06.292Z,5.53
2023-03-21T08:05:36.561Z,5.43
2023-03-21T08:08:05.856Z,5.30
2023-03-21T08:10:36.042Z,4.90
2023-03-21T08:13:04.513Z,4.63
2023-03-21T08:15:33.083Z,5.10
2023-03-21T08:18:01.794Z,5.37
2023-03-21T08:20:30.273Z,5.67
2023-03-21T08:22:59.104Z,5.67
2023-03-21T08:25:27.829Z,5.80
2023-03-21T08:27:57.534Z,5.97
2023-03-21T08:30:27.092Z,5.60
2023-03-21T08:33:00.883Z,5.90
2023-03-21T08:35:30.511Z,5.03
2023-03-21T08:37:59.026Z,5.70
2023-03-21T08:40:27.419Z,6.10
2023-03-21T08:42:55.869Z,5.93
2023-03-21T08:45:27.036Z,5.30
2023-03-21T08:47:56.263Z,5.30
2023-03-21T08:50:26.666Z,5.17
2023-03-21T08:52:55.029Z,5.40
2023-03-21T08:55:23.350Z,4.90
2023-03-21T08:57:51.780Z,4.80
2023-03-21T09:00:21.246Z,4.47
2023-03-21T09:02:54.343Z,4.93
2023-03-21T09:05:23.481Z,4.30
2023-03-21T09:07:52.870Z,5.27
2023-03-21T09:10:22.701Z,3.90
2023-03-21T09:12:52.285Z,4.27
2023-03-21T09:15:21.912Z,4.67
2023-03-21T09:17:53.332Z,4.47
2023-03-21T09:20:26.341Z,3.80
2023-03-21T09:22:55.333Z,4.67
2023-03-21T09:25:23.802Z,4.20
2023-03-21T09:27:53.769Z,4.23
2023-03-21T09:30:25.524Z,4.00
2023-03-21T09:32:56.143Z,4.03
2023-03-21T09:35:24.932Z,5.07
2023-03-21T09:37:53.373Z,3.60
2023-03-21T09:40:22.573Z,2.77
2023-03-21T09:42:59.127Z,3.33
2023-03-21T09:45:34.240Z,3.10
2023-03-21T09:48:07.692Z,3.33
2023-03-21T09:50:37.806Z,3.87
2023-03-21T09:53:09.016Z,3.80
2023-03-21T09:55:39.597Z,3.00
2023-03-21T09:58:10.093Z,3.40
2023-03-21T10:00:40.252Z,3.17
2023-03-21T10:03:17.524Z,2.97
2023-03-21T10:05:49.255Z,3.17
2023-03-21T10:08:24.950Z,3.53
2023-03-21T10:10:55.068Z,3.33
2023-03-21T10:13:25.061Z,3.80
2023-03-21T10:15:58.039Z,3.37
2023-03-21T10:18:29.210Z,3.30
2023-03-21T10:20:57.631Z,3.80
2023-03-21T10:23:28.578Z,3.80
2023-03-21T10:25:58.571Z,3.73
2023-03-21T10:28:36.626Z,3.70
2023-03-21T10:31:08.667Z,3.30
2023-03-21T10:33:39.731Z,3.40
2023-03-21T10:36:09.964Z,3.23
2023-03-21T10:38:46.771Z,3.20
2023-03-21T10:41:15.153Z,3.60
2023-03-21T10:43:45.908Z,3.80
2023-03-21T10:46:15.180Z,3.43
2023-03-21T10:48:47.230Z,3.40
2023-03-21T10:51:19.164Z,3.30
2023-03-21T10:53:48.564Z,3.37
2023-03-21T10:56:16.983Z,3.30
2023-03-21T10:58:47.208Z,3.47
2023-03-21T11:01:17.513Z,3.50
2023-03-21T11:03:48.230Z,3.63
2023-03-21T11:06:18.425Z,3.20
2023-03-21T11:08:48.581Z,3.88
2023-03-21T11:11:22.225Z,3.70
2023-03-21T11:13:57.695Z,4.18
2023-03-21T11:16:27.529Z,4.28
2023-03-21T11:19:02.592Z,4.50
2023-03-21T11:21:38.087Z,3.43
2023-03-21T11:24:07.600Z,3.92
2023-03-21T11:26:38.026Z,3.83
2023-03-21T11:29:27.583Z,3.55
2023-03-21T11:32:01.139Z,4.07
2023-03-21T11:34:33.813Z,4.00
2023-03-21T11:37:04.074Z,4.15
2023-03-21T11:39:37.250Z,3.85
2023-03-21T11:42:06.911Z,4.00
2023-03-21T11:44:42.368Z,3.80
2023-03-21T11:47:12.005Z,3.85
2023-03-21T11:49:41.712Z,3.50
2023-03-21T11:52:24.103Z,3.80
2023-03-21T11:55:01.039Z,4.00
2023-03-21T11:57:32.980Z,3.55
2023-03-21T12:00:10.765Z,3.50
2023-03-21T12:02:55.386Z,4.20
2023-03-21T12:05:28.524Z,3.28
2023-03-21T12:07:59.872Z,3.75
2023-03-21T12:10:33.062Z,3.38
2023-03-21T12:13:06.577Z,4.15
2023-03-21T12:15:42.856Z,3.70
2023-03-21T12:18:18.050Z,3.55
2023-03-21T12:20:50.612Z,3.45
2023-03-21T12:23:38.552Z,4.00
2023-03-21T12:26:12.954Z,4.38
2023-03-21T12:28:47.050Z,3.90
2023-03-21T12:31:21.075Z,3.80
2023-03-21T12:33:55.863Z,4.28
2023-03-21T12:36:54.849Z,3.70
2023-03-21T12:39:29.156Z,3.67
2023-03-21T12:42:07.900Z,3.70
2023-03-21T12:44:38.486Z,4.82
2023-03-21T12:47:09.841Z,3.70
2023-03-21T12:49:40.804Z,4.40
2023-03-21T12:52:11.252Z,3.85
2023-03-21T12:54:48.572Z,3.70
2023-03-21T12:57:19.120Z,4.45
2023-03-21T12:59:50.790Z,3.47
2023-03-21T13:02:24.398Z,3.80
2023-03-21T13:05:01.512Z,3.92
2023-03-21T13:07:31.127Z,3.67
2023-03-21T13:10:02.273Z,3.50
2023-03-21T13:12:35.844Z,3.13
2023-03-21T13:15:23.200Z,2.97
2023-03-21T13:17:55.381Z,2.92
2023-03-21T13:20:27.742Z,3.58
2023-03-21T13:22:56.187Z,3.20
2023-03-21T13:25:28.276Z,3.33
2023-03-21T13:27:57.314Z,3.40
2023-03-21T13:30:27.230Z,3.40
2023-03-21T13:32:59.922Z,2.95
2023-03-21T13:35:37.635Z,3.00
2023-03-21T13:38:12.648Z,3.30
2023-03-21T13:40:45.354Z,2.90
2023-03-21T13:43:32.531Z,3.70
2023-03-21T13:46:07.277Z,3.40
2023-03-21T13:48:49.388Z,3.05
2023-03-21T13:51:45.671Z,3.10
2023-03-21T13:54:22.488Z,2.67
2023-03-21T13:56:53.502Z,2.53
2023-03-21T13:59:37.488Z,3.10
2023-03-21T14:02:09.588Z,2.85
2023-03-21T14:04:48.230Z,3.10
2023-03-21T14:07:24.452Z,2.42
2023-03-21T14:09:54.551Z,3.03
2023-03-21T14:12:25.787Z,2.72
2023-03-21T14:14:56.421Z,3.17
2023-03-21T14:17:27.280Z,3.08
2023-03-21T14:19:56.163Z,3.25
2023-03-21T14:22:25.185Z,3.30
2023-03-21T14:24:57.231Z,3.15
2023-03-21T14:27:29.660Z,3.80
2023-03-21T14:29:58.189Z,2.83
2023-03-21T14:32:28.254Z,3.50
2023-03-21T14:34:56.959Z,3.05
2023-03-21T14:37:29.455Z,3.80
2023-03-21T14:40:01.605Z,3.67
2023-03-21T14:42:35.452Z,3.70
2023-03-21T14:45:12.627Z,3.42
2023-03-21T14:47:41.226Z,3.45
2023-03-21T14:50:12.597Z,3.40
2023-03-21T14:52:44.457Z,3.65
2023-03-21T14:55:17.065Z,3.22
2023-03-21T14:57:47.087Z,3.75
2023-03-21T15:00:19.931Z,3.90
2023-03-21T15:02:48.620Z,3.42
2023-03-21T15:05:20.457Z,4.00
2023-03-21T15:07:55.444Z,3.88
2023-03-21T15:10:24.046Z,3.72
2023-03-21T15:12:55.755Z,4.28
2023-03-21T15:15:27.406Z,3.60
2023-03-21T15:17:58.500Z,3.38
2023-03-21T15:20:30.225Z,2.90
2023-03-21T15:23:02.266Z,3.60
2023-03-21T15:25:32.769Z,3.25
2023-03-21T15:28:03.099Z,3.50
2023-03-21T15:30:34.144Z,3.20
2023-03-21T15:33:07.766Z,2.97
2023-03-21T15:35:39.840Z,3.05
2023-03-21T15:38:09.243Z,2.97
2023-03-21T15:40:38.444Z,2.75
2023-03-21T15:43:15.127Z,2.90
2023-03-21T15:45:48.353Z,3.55
2023-03-21T15:48:18.048Z,3.38
2023-03-21T15:50:51.101Z,2.90
2023-03-21T15:53:20.589Z,2.58
2023-03-21T15:55:50.219Z,2.90
2023-03-21T15:58:20.988Z,2.60
2023-03-21T16:00:54.989Z,2.65
2023-03-21T16:03:26.055Z,3.20
2023-03-21T16:06:10.717Z,3.65
2023-03-21T16:08:40.511Z,3.20
2023-03-21T16:11:09.845Z,3.03
2023-03-21T16:13:39.585Z,3.70
2023-03-21T16:16:08.289Z,3.20
2023-03-21T16:18:37.717Z,3.40
2023-03-21T16:21:06.592Z,3.67
2023-03-21T16:23:35.035Z,3.40
2023-03-21T16:26:05.146Z,3.70
2023-03-21T16:28:34.814Z,3.20
2023-03-21T16:31:04.633Z,3.67
2023-03-21T16:33:32.975Z,3.63
2023-03-21T16:36:01.506Z,3.25
2023-03-21T16:38:30.067Z,3.40
2023-03-21T16:40:58.477Z,3.83
2023-03-21T16:43:26.969Z,3.53
2023-03-21T16:45:59.102Z,3.92
2023-03-21T16:48:29.348Z,3.30
2023-03-21T16:50:57.806Z,3.88
2023-03-21T16:53:26.180Z,3.93
2023-03-21T16:55:55.222Z,4.30
2023-03-21T16:58:24.054Z,3.83
2023-03-21T17:00:53.950Z,3.57
2023-03-21T17:03:23.023Z,3.97
2023-03-21T17:05:52.868Z,3.53
2023-03-21T17:08:22.087Z,3.27
2023-03-21T17:10:50.617Z,3.97
2023-03-21T17:13:19.046Z,3.67
2023-03-21T17:15:47.597Z,4.20
2023-03-21T17:18:15.930Z,3.93
2023-03-21T17:20:44.314Z,4.03
2023-03-21T17:23:14.039Z,3.90
2023-03-21T17:25:42.438Z,3.90
2023-03-21T17:28:10.847Z,3.90
2023-03-21T17:30:40.260Z,4.53
2023-03-21T17:33:08.975Z,3.77
2023-03-21T17:35:38.096Z,4.37
2023-03-21T17:38:07.146Z,3.70
2023-03-21T17:40:37.412Z,4.30
2023-03-21T17:43:07.759Z,4.10
2023-03-21T17:45:36.519Z,3.70
2023-03-21T17:48:05.227Z,4.40
2023-03-21T17:50:37.419Z,4.90
2023-03-21T17:53:06.210Z,4.10
2023-03-21T17:55:35.605Z,5.17
2023-03-21T17:58:06.223Z,4.30
2023-03-21T18:00:34.611Z,5.70
2023-03-21T18:03:03.253Z,5.10
2023-03-21T18:05:31.655Z,4.40
2023-03-21T18:08:15.530Z,4.33
2023-03-21T18:10:44.367Z,4.50
2023-03-21T18:13:14.281Z,4.67
2023-03-21T18:15:44.228Z,4.27
2023-03-21T18:18:13.331Z,4.67
2023-03-21T18:20:51.587Z,4.13
2023-03-21T18:23:21.210Z,4.50
2023-03-21T18:25:50.143Z,4.30
2023-03-21T18:28:21.221Z,4.07
2023-03-21T18:31:07.642Z,4.40
2023-03-21T18:33:40.224Z,4.33
2023-03-21T18:36:09.180Z,5.03
2023-03-21T18:38:38.384Z,4.27
2023-03-21T18:41:09.020Z,4.53
2023-03-21T18:46:28.380Z,4.73
2023-03-21T18:48:57.260Z,4.47
2023-03-21T18:51:26.402Z,4.33
2023-03-21T18:53:55.065Z,4.30
2023-03-21T18:57:13.053Z,4.70
2023-03-21T18:59:14.100Z,4.70
2023-03-21T19:01:42.537Z,4.50
2023-03-21T19:04:23.057Z,4.80
2023-03-21T19:06:57.626Z,4.90
2023-03-21T19:09:31.215Z,5.13
2023-03-21T19:12:00.689Z,5.37
2023-03-21T19:14:30.799Z,6.40
2023-03-21T19:17:47.558Z,6.00
2023-03-21T19:19:48.499Z,5.50
2023-03-21T19:22:17.286Z,5.60
2023-03-21T19:24:47.103Z,5.77
2023-03-21T19:27:15.733Z,5.70
2023-03-21T19:29:59.738Z,5.67
2023-03-21T19:32:34.129Z,6.10
2023-03-21T19:35:02.730Z,6.60
2023-03-21T19:37:35.040Z,6.40
2023-03-21T19:40:05.354Z,6.70
2023-03-21T19:42:36.289Z,6.50
2023-03-21T19:45:06.770Z,6.60
2023-03-21T19:47:35.262Z,7.10
2023-03-21T19:50:45.481Z,7.20
2023-03-21T19:52:53.201Z,7.27
2023-03-21T19:55:21.600Z,7.60
2023-03-21T19:57:50.175Z,7.07
2023-03-21T20:00:20.534Z,6.60
2023-03-21T20:02:49.284Z,7.70
2023-03-21T20:05:20.476Z,7.10
2023-03-21T20:07:48.981Z,6.60
2023-03-21T20:10:17.349Z,6.70
2023-03-21T20:12:46.115Z,6.73
2023-03-21T20:15:19.965Z,7.20
2023-03-21T20:17:51.806Z,6.90
2023-03-21T20:20:20.317Z,6.43
2023-03-21T20:25:40.695Z,6.57
2023-03-21T20:28:24.633Z,7.57
2023-03-21T20:30:58.544Z,6.67
2023-03-21T20:33:29.088Z,5.80
2023-03-21T20:38:48.223Z,6.57
2023-03-21T20:41:16.829Z,6.87
2023-03-21T20:46:36.417Z,5.87
2023-03-21T20:49:07.676Z,6.43
2023-03-21T20:54:24.624Z,6.87
2023-03-21T20:56:53.033Z,6.77
2023-03-21T20:59:27.254Z,5.87
2023-03-21T21:01:58.784Z,7.00
2023-03-21T21:04:55.809Z,7.30
2023-03-21T21:07:21.078Z,7.20
2023-03-21T21:09:50.086Z,7.63
2023-03-21T21:12:19.770Z,7.40
2023-03-21T21:14:49.141Z,7.20
2023-03-21T21:20:16.783Z,7.47
2023-03-21T21:22:58.426Z,7.37
2023-03-21T21:25:28.942Z,6.73
2023-03-21T21:27:57.466Z,6.37
2023-03-21T21:30:25.987Z,6.40
2023-03-21T21:32:54.356Z,6.27
2023-03-21T21:35:26.411Z,7.10
2023-03-21T21:37:55.010Z,6.40
2023-03-21T21:40:23.564Z,6.17
2023-03-21T21:42:52.119Z,6.40
2023-03-21T21:45:20.625Z,6.00
2023-03-21T21:47:49.117Z,6.20
2023-03-21T21:50:17.662Z,6.93
2023-03-21T21:52:54.441Z,5.90
2023-03-21T21:55:23.103Z,6.40
2023-03-21T21:57:52.857Z,5.90
2023-03-21T22:00:23.482Z,6.70
2023-03-21T22:02:52.024Z,6.33
2023-03-21T22:05:20.976Z,6.30
2023-03-21T22:07:51.987Z,7.07
2023-03-21T22:10:21.091Z,6.83
2023-03-21T22:12:49.566Z,7.20
2023-03-21T22:15:18.264Z,6.47
2023-03-21T22:17:47.535Z,6.33
2023-03-21T22:20:16.794Z,6.67
2023-03-21T22:22:45.352Z,7.10
2023-03-21T22:25:16.376Z,6.80
2023-03-21T22:27:45.625Z,6.20
2023-03-21T22:30:17.401Z,6.80
2023-03-21T22:32:49.683Z,7.27
2023-03-21T22:35:22.256Z,6.83
2023-03-21T22:37:50.917Z,6.83
2023-03-21T22:40:21.153Z,7.13
2023-03-21T22:42:49.523Z,6.80
2023-03-21T22:45:18.044Z,6.60
2023-03-21T22:47:46.425Z,6.87
2023-03-21T22:50:14.747Z,6.83
2023-03-21T22:52:43.275Z,6.60
2023-03-21T22:55:12.779Z,7.70
2023-03-21T22:57:42.618Z,7.30
2023-03-21T23:00:13.475Z,7.00
2023-03-21T23:02:42.453Z,7.10
2023-03-21T23:05:12.163Z,7.40
2023-03-21T23:07:41.162Z,7.47
2023-03-21T23:10:12.101Z,7.83
2023-03-21T23:12:42.316Z,7.77
2023-03-21T23:15:11.256Z,6.97
2023-03-21T23:17:39.922Z,6.70
2023-03-21T23:20:09.818Z,7.87
2023-03-21T23:22:38.498Z,7.53
2023-03-21T23:25:07.595Z,7.57
2023-03-21T23:27:36.419Z,7.33
2023-03-21T23:30:07.537Z,7.40
2023-03-21T23:32:36.137Z,7.33
2023-03-21T23:35:04.507Z,7.23
2023-03-21T23:37:32.969Z,8.43
2023-03-21T23:40:01.334Z,8.33
2023-03-21T23:42:30.664Z,7.73
2023-03-21T23:44:59.101Z,7.87
2023-03-21T23:47:30.933Z,8.03
2023-03-21T23:49:59.287Z,7.90
2023-03-21T23:52:27.987Z,7.00
2023-03-21T23:54:56.490Z,7.60
2023-03-21T23:57:24.901Z,8.50
2023-03-21T23:59:55.593Z,8.50
